M I D A S
Marine Information and Data Acquisition System
Tripno 1614 of the Zeeleeuw from 2008-11-24 08:15:56 to 2008-11-24 12:17:43
Back to CruiseResearch ActivitiesStationsMapUnderway DataData graphs

EquipmentUnitsComments
TimeDGPSUTC
LatitudeDGPSDM.mWGS84
LongitudeDGPSDM.mWGS84
SpeedMeteo Stationm/sRelative wind speed
DirectionMeteo StationdegRelative wind direction
TemperatureMeteo Stationdeg CelciusAir temperature
PressureMeteo StationPaAtmospheric pressure
HumidityMeteo Station%Relative humidity
Missing or incorrect values are displayed as -999
Metereological data collected by the RV Zeeleeuw from 2008-11-24 08:15:56 to 2008-11-24 12:17:43
Time Latitude Longitude Speed Direction Temperature Pressure Humidity
2008-11-24 08:18 51°13.622 2°56.047 -999 -999 -999 -999 -999
2008-11-24 08:20 51°13.648 2°55.941 -999 -999 -999 -999 -999
2008-11-24 08:22 51°13.711 2°55.787 -999 -999 -999 -999 -999
2008-11-24 08:24 51°13.721 2°55.727 -999 -999 -999 -999 -999
2008-11-24 08:26 51°13.767 2°55.684 -999 -999 -999 -999 -999
2008-11-24 08:28 51°14.03 2°55.484 -999 -999 -999 -999 -999
2008-11-24 08:30 51°14.305 2°55.18 -999 -999 -999 -999 -999
2008-11-24 08:32 51°14.425 2°54.721 -999 -999 -999 -999 -999
2008-11-24 08:34 51°14.253 2°54.237 -999 -999 -999 -999 -999
2008-11-24 08:36 51°14.08 2°53.765 -999 -999 -999 -999 -999
2008-11-24 08:38 51°13.94 2°53.261 -999 -999 -999 -999 -999
2008-11-24 08:40 51°13.807 2°52.748 -999 -999 -999 -999 -999
2008-11-24 08:42 51°13.642 2°52.261 -999 -999 -999 -999 -999
2008-11-24 08:44 51°13.472 2°51.775 -999 -999 -999 -999 -999
2008-11-24 08:46 51°13.302 2°51.281 -999 -999 -999 -999 -999
2008-11-24 08:48 51°13.132 2°50.799 -999 -999 -999 -999 -999
2008-11-24 08:50 51°12.967 2°50.314 -999 -999 -999 -999 -999
2008-11-24 08:52 51°12.798 2°49.826 -999 -999 -999 -999 -999
2008-11-24 08:54 51°12.635 2°49.345 -999 -999 -999 -999 -999
2008-11-24 08:56 51°12.47 2°48.861 -999 -999 -999 -999 -999
2008-11-24 08:58 51°12.305 2°48.379 -999 -999 -999 -999 -999
2008-11-24 09:00 51°12.143 2°47.902 -999 -999 -999 -999 -999
2008-11-24 09:02 51°12.004 2°47.403 -999 -999 -999 -999 -999
2008-11-24 09:04 51°11.949 2°46.874 -999 -999 -999 -999 -999
2008-11-24 09:06 51°11.89 2°46.341 -999 -999 -999 -999 -999
2008-11-24 09:08 51°11.832 2°45.818 -999 -999 -999 -999 -999
2008-11-24 09:10 51°11.799 2°45.28 -999 -999 -999 -999 -999
2008-11-24 09:12 51°11.777 2°44.763 -999 -999 -999 -999 -999
2008-11-24 09:14 51°11.751 2°44.229 -999 -999 -999 -999 -999
2008-11-24 09:16 51°11.721 2°43.706 -999 -999 -999 -999 -999
2008-11-24 09:18 51°11.681 2°43.175 -999 -999 -999 -999 -999
2008-11-24 09:20 51°11.604 2°42.654 -999 -999 -999 -999 -999
2008-11-24 09:22 51°11.484 2°42.151 -999 -999 -999 -999 -999
2008-11-24 09:24 51°11.28 2°41.709 -999 -999 -999 -999 -999
2008-11-24 09:26 51°11.088 2°41.255 -999 -999 -999 -999 -999
2008-11-24 09:28 51°10.899 2°40.811 -999 -999 -999 -999 -999
2008-11-24 09:30 51°10.713 2°40.359 -999 -999 -999 -999 -999
2008-11-24 09:32 51°10.52 2°39.909 -999 -999 -999 -999 -999
2008-11-24 09:34 51°10.346 2°39.445 -999 -999 -999 -999 -999
2008-11-24 09:36 51°10.169 2°38.981 -999 -999 -999 -999 -999
2008-11-24 09:38 51°10.002 2°38.507 -999 -999 -999 -999 -999
2008-11-24 09:40 51°9.836 2°38.03 -999 -999 -999 -999 -999
2008-11-24 09:42 51°9.663 2°37.557 -999 -999 -999 -999 -999
2008-11-24 09:44 51°9.49 2°37.097 -999 -999 -999 -999 -999
2008-11-24 09:46 51°9.418 2°36.88 -999 -999 -999 -999 -999
2008-11-24 09:48 51°9.396 2°36.886 -999 -999 -999 -999 -999
2008-11-24 09:50 51°9.33 2°36.788 -999 -999 -999 -999 -999
2008-11-24 09:52 51°9.303 2°36.682 -999 -999 -999 -999 -999
2008-11-24 09:54 51°9.264 2°36.585 -999 -999 -999 -999 -999
2008-11-24 09:56 51°9.218 2°36.495 -999 -999 -999 -999 -999
2008-11-24 09:58 51°9.168 2°36.41 -999 -999 -999 -999 -999
2008-11-24 10:00 51°9.122 2°36.316 -999 -999 -999 -999 -999
2008-11-24 10:02 51°9.093 2°36.205 -999 -999 -999 -999 -999
2008-11-24 10:04 51°9.067 2°36.103 -999 -999 -999 -999 -999
2008-11-24 10:06 51°9.045 2°35.994 -999 -999 -999 -999 -999
2008-11-24 10:08 51°9.017 2°35.882 -999 -999 -999 -999 -999
2008-11-24 10:10 51°8.99 2°35.771 -999 -999 -999 -999 -999
2008-11-24 10:12 51°8.961 2°35.66 -999 -999 -999 -999 -999
2008-11-24 10:14 51°8.931 2°35.55 -999 -999 -999 -999 -999
2008-11-24 10:16 51°8.9 2°35.449 -999 -999 -999 -999 -999
2008-11-24 10:18 51°8.87 2°35.343 -999 -999 -999 -999 -999
2008-11-24 10:20 51°8.842 2°35.234 -999 -999 -999 -999 -999
2008-11-24 10:22 51°8.827 2°35.138 -999 -999 -999 -999 -999
2008-11-24 10:24 51°8.825 2°35.124 -999 -999 -999 -999 -999
2008-11-24 10:26 51°8.813 2°35.164 -999 -999 -999 -999 -999
2008-11-24 10:28 51°8.855 2°35.156 -999 -999 -999 -999 -999
2008-11-24 10:30 51°8.996 2°35.46 -999 -999 -999 -999 -999
2008-11-24 10:32 51°9.209 2°35.961 -999 -999 -999 -999 -999
2008-11-24 10:34 51°9.422 2°36.549 -999 -999 -999 -999 -999
2008-11-24 10:36 51°9.639 2°37.15 -999 -999 -999 -999 -999
2008-11-24 10:38 51°9.855 2°37.746 -999 -999 -999 -999 -999
2008-11-24 10:40 51°10.067 2°38.328 -999 -999 -999 -999 -999
2008-11-24 10:42 51°10.281 2°38.907 -999 -999 -999 -999 -999
2008-11-24 10:44 51°10.488 2°39.491 -999 -999 -999 -999 -999
2008-11-24 10:46 51°10.699 2°40.072 -999 -999 -999 -999 -999
2008-11-24 10:48 51°10.913 2°40.658 -999 -999 -999 -999 -999
2008-11-24 10:50 51°11.183 2°41.167 -999 -999 -999 -999 -999
2008-11-24 10:52 51°11.474 2°41.649 -999 -999 -999 -999 -999
2008-11-24 10:54 51°11.739 2°42.153 -999 -999 -999 -999 -999
2008-11-24 10:56 51°12 2°42.662 -999 -999 -999 -999 -999
2008-11-24 10:58 51°12.262 2°43.174 -999 -999 -999 -999 -999
2008-11-24 11:00 51°12.523 2°43.684 -999 -999 -999 -999 -999
2008-11-24 11:02 51°12.779 2°44.192 -999 -999 -999 -999 -999
2008-11-24 11:04 51°13.038 2°44.693 -999 -999 -999 -999 -999
2008-11-24 11:06 51°13.302 2°45.191 -999 -999 -999 -999 -999
2008-11-24 11:08 51°13.582 2°45.659 -999 -999 -999 -999 -999
2008-11-24 11:10 51°13.861 2°46.114 -999 -999 -999 -999 -999
2008-11-24 11:12 51°14.135 2°46.58 -999 -999 -999 -999 -999
2008-11-24 11:14 51°14.379 2°47.079 -999 -999 -999 -999 -999
2008-11-24 11:16 51°14.612 2°47.558 -999 -999 -999 -999 -999
2008-11-24 11:18 51°14.845 2°48.037 -999 -999 -999 -999 -999
2008-11-24 11:20 51°15.094 2°48.526 -999 -999 -999 -999 -999
2008-11-24 11:22 51°15.341 2°49.021 -999 -999 -999 -999 -999
2008-11-24 11:24 51°15.585 2°49.518 -999 -999 -999 -999 -999
2008-11-24 11:26 51°15.837 2°50.019 -999 -999 -999 -999 -999
2008-11-24 11:28 51°16.09 2°50.521 -999 -999 -999 -999 -999
2008-11-24 11:30 51°16.361 2°51.004 -999 -999 -999 -999 -999
2008-11-24 11:32 51°16.633 2°51.449 -999 -999 -999 -999 -999
2008-11-24 11:34 51°16.908 2°51.889 -999 -999 -999 -999 -999
2008-11-24 11:36 51°17.178 2°52.32 -999 -999 -999 -999 -999
2008-11-24 11:38 51°17.456 2°52.752 -999 -999 -999 -999 -999
2008-11-24 11:40 51°17.733 2°53.188 -999 -999 -999 -999 -999
2008-11-24 11:42 51°18.008 2°53.615 -999 -999 -999 -999 -999
2008-11-24 11:44 51°17.983 2°53.766 -999 -999 -999 -999 -999
2008-11-24 11:46 51°17.84 2°53.506 -999 -999 -999 -999 -999
2008-11-24 11:48 51°17.67 2°53.198 -999 -999 -999 -999 -999
2008-11-24 11:50 51°17.468 2°52.823 -999 -999 -999 -999 -999
2008-11-24 11:52 51°17.21 2°52.493 -999 -999 -999 -999 -999
2008-11-24 11:54 51°16.872 2°52.563 -999 -999 -999 -999 -999
2008-11-24 11:56 51°16.556 2°52.832 -999 -999 -999 -999 -999
2008-11-24 11:58 51°16.228 2°53.076 -999 -999 -999 -999 -999